Time;durP1;ratioP1;P1;durP2;ratioP2;P2;SDS_P1;SDS_P2;PMS_P1;PMS_P2;Temp;Humidity;BMP_temperature;BMP_pressure;BME280_temperature;BME280_humidity;BME280_pressure;Samples;Min_cycle;Max_cycle;Signal;HPM_P1;HPM_P2
2020/12/25 00:02:08;;;;;;;2.53;0.70;;;;;;;;;;4961693;28;20255;-71
2020/12/25 00:04:34;;;;;;;2.63;1.37;;;;;;;;;;4955212;28;20208;-71
2020/12/25 00:07:00;;;;;;;1.33;0.60;;;;;;;;;;4954762;28;20181;-72
2020/12/25 00:09:25;;;;;;;1.33;0.60;;;;;;;;;;4953961;28;20710;-71
2020/12/25 00:11:50;;;;;;;3.13;0.60;;;;;;;;;;4952061;28;20248;-73
2020/12/25 00:14:15;;;;;;;1.67;0.73;;;;;;;;;;4956877;28;20235;-72
2020/12/25 00:16:40;;;;;;;4.70;0.77;;;;;;;;;;4963522;28;20184;-72
2020/12/25 00:19:06;;;;;;;2.17;1.27;;;;;;;;;;4951160;28;20204;-72
2020/12/25 00:21:36;;;;;;;2.73;1.20;;;;;;;;;;4949594;28;20720;-74
2020/12/25 00:24:02;;;;;;;2.33;1.10;;;;;;;;;;4970438;28;20215;-72
2020/12/25 00:26:28;;;;;;;1.23;0.80;;;;;;;;;;4956194;28;20185;-72
2020/12/25 00:28:55;;;;;;;1.40;1.13;;;;;;;;;;4956854;28;20230;-72
2020/12/25 00:31:24;;;;;;;2.20;1.07;;;;;;;;;;4965411;28;20184;-72
2020/12/25 00:33:49;;;;;;;2.83;0.90;;;;;;;;;;4961565;28;20212;-72
2020/12/25 00:36:22;;;;;;;1.17;0.87;;;;;;;;;;4960971;28;20460;-72
2020/12/25 00:38:47;;;;;;;3.17;1.10;;;;;;;;;;4963723;28;20212;-72
2020/12/25 00:41:12;;;;;;;3.47;1.10;;;;;;;;;;4968786;28;20191;-72
2020/12/25 00:43:37;;;;;;;3.83;1.15;;;;;;;;;;4968502;28;20208;-72
2020/12/25 00:46:08;;;;;;;1.00;0.90;;;;;;;;;;4966820;28;20179;-72
2020/12/25 00:48:33;;;;;;;4.53;1.20;;;;;;;;;;4971478;28;20192;-73
2020/12/25 00:50:59;;;;;;;3.45;0.80;;;;;;;;;;4979713;28;20183;-72
2020/12/25 00:53:24;;;;;;;0.90;0.70;;;;;;;;;;4969871;28;20197;-72
2020/12/25 00:55:49;;;;;;;2.00;0.90;;;;;;;;;;4965422;28;20538;-72
2020/12/25 00:58:14;;;;;;;3.42;1.02;;;;;;;;;;4969083;28;20211;-72
2020/12/25 01:00:39;;;;;;;4.80;1.00;;;;;;;;;;4963540;28;20221;-72
2020/12/25 01:03:04;;;;;;;1.40;0.83;;;;;;;;;;4967333;28;20258;-72
2020/12/25 01:05:30;;;;;;;4.27;1.27;;;;;;;;;;4971559;28;20195;-72
2020/12/25 01:07:55;;;;;;;2.10;0.80;;;;;;;;;;4968829;28;20186;-73
2020/12/25 01:10:20;;;;;;;3.10;1.10;;;;;;;;;;4971308;28;20196;-72
2020/12/25 01:12:45;;;;;;;1.10;0.80;;;;;;;;;;4970144;28;20210;-74
2020/12/25 01:15:10;;;;;;;3.63;0.90;;;;;;;;;;4972900;28;20188;-73
2020/12/25 01:17:35;;;;;;;2.67;1.20;;;;;;;;;;4974108;28;20281;-72
2020/12/25 01:20:00;;;;;;;2.40;0.70;;;;;;;;;;4972887;28;20180;-72
2020/12/25 01:22:26;;;;;;;2.20;0.83;;;;;;;;;;4973368;28;20594;-72
2020/12/25 01:24:51;;;;;;;2.77;0.90;;;;;;;;;;4969697;28;20183;-72
2020/12/25 01:27:16;;;;;;;1.77;0.70;;;;;;;;;;4969923;28;20613;-72
2020/12/25 01:29:41;;;;;;;3.70;1.20;;;;;;;;;;4970974;28;20187;-73
2020/12/25 01:32:06;;;;;;;3.17;0.93;;;;;;;;;;4969308;28;20180;-72
2020/12/25 01:34:32;;;;;;;2.80;0.80;;;;;;;;;;4967237;28;20235;-72
2020/12/25 01:36:57;;;;;;;2.70;0.77;;;;;;;;;;4973617;28;20184;-72
2020/12/25 01:39:22;;;;;;;4.00;1.40;;;;;;;;;;4969463;28;20302;-72
2020/12/25 01:41:47;;;;;;;4.23;1.47;;;;;;;;;;4972947;28;20172;-72
2020/12/25 01:44:12;;;;;;;3.47;1.23;;;;;;;;;;4972360;28;20236;-72
2020/12/25 01:46:38;;;;;;;2.97;1.10;;;;;;;;;;4971338;28;20175;-72
2020/12/25 01:49:03;;;;;;;3.17;1.30;;;;;;;;;;4971798;28;20204;-72
2020/12/25 01:51:28;;;;;;;4.43;1.47;;;;;;;;;;4970543;28;20188;-72
2020/12/25 01:53:54;;;;;;;2.87;1.20;;;;;;;;;;4972307;28;20200;-72
2020/12/25 01:56:19;;;;;;;1.87;1.10;;;;;;;;;;4973071;28;20199;-72
2020/12/25 01:58:44;;;;;;;1.93;1.10;;;;;;;;;;4972568;28;20216;-72
2020/12/25 02:01:09;;;;;;;2.93;1.10;;;;;;;;;;4967436;28;20206;-72
2020/12/25 02:03:35;;;;;;;3.20;1.17;;;;;;;;;;4968876;28;20262;-72
2020/12/25 02:06:00;;;;;;;2.43;1.20;;;;;;;;;;4969618;28;20176;-72
2020/12/25 02:08:25;;;;;;;2.97;1.20;;;;;;;;;;4971305;28;20200;-72
2020/12/25 02:10:51;;;;;;;3.30;1.50;;;;;;;;;;4970188;28;20188;-72
2020/12/25 02:13:17;;;;;;;2.77;1.00;;;;;;;;;;4969514;28;20235;-72
2020/12/25 02:15:42;;;;;;;2.93;1.30;;;;;;;;;;4968965;28;20626;-72
2020/12/25 02:18:07;;;;;;;5.10;1.37;;;;;;;;;;4970141;28;20232;-72
2020/12/25 02:20:32;;;;;;;2.30;1.10;;;;;;;;;;4971739;28;20196;-72
2020/12/25 02:22:58;;;;;;;3.27;2.07;;;;;;;;;;4970943;28;20211;-72
2020/12/25 02:25:23;;;;;;;4.57;1.10;;;;;;;;;;4985982;28;20168;-72
2020/12/25 02:27:48;;;;;;;3.43;1.10;;;;;;;;;;4969867;28;20679;-72
2020/12/25 02:30:16;;;;;;;3.77;1.33;;;;;;;;;;4970519;28;20242;-72
2020/12/25 02:32:42;;;;;;;1.50;1.20;;;;;;;;;;4967250;28;20586;-72
2020/12/25 02:35:07;;;;;;;11.17;1.40;;;;;;;;;;4968781;28;20183;-72
2020/12/25 02:37:32;;;;;;;2.57;1.13;;;;;;;;;;4965821;28;20697;-73
2020/12/25 02:39:57;;;;;;;2.97;1.37;;;;;;;;;;4972335;28;20179;-73
2020/12/25 02:42:23;;;;;;;2.90;1.40;;;;;;;;;;4982732;28;20267;-72
2020/12/25 02:44:48;;;;;;;4.20;1.57;;;;;;;;;;4974203;28;20259;-72
2020/12/25 02:47:13;;;;;;;2.83;1.30;;;;;;;;;;4973004;28;20180;-72
2020/12/25 02:49:38;;;;;;;1.37;0.90;;;;;;;;;;4991218;28;20236;-72
2020/12/25 02:52:04;;;;;;;3.30;1.20;;;;;;;;;;4979061;28;20172;-72
2020/12/25 02:54:29;;;;;;;4.87;1.50;;;;;;;;;;4979390;28;20204;-72
2020/12/25 02:56:54;;;;;;;3.07;1.30;;;;;;;;;;4989185;28;20183;-72
2020/12/25 02:59:20;;;;;;;2.70;1.20;;;;;;;;;;4980486;28;20191;-72
2020/12/25 03:01:49;;;;;;;4.57;1.37;;;;;;;;;;4992418;28;20212;-72
2020/12/25 03:04:14;;;;;;;5.30;1.60;;;;;;;;;;4987714;28;20216;-72
2020/12/25 03:06:39;;;;;;;3.00;1.40;;;;;;;;;;4988185;28;20172;-72
2020/12/25 03:09:04;;;;;;;3.80;1.30;;;;;;;;;;4974289;28;20188;-73
2020/12/25 03:11:29;;;;;;;3.20;1.20;;;;;;;;;;4982276;28;20188;-72
2020/12/25 03:13:54;;;;;;;3.20;1.20;;;;;;;;;;4989809;28;20203;-72
2020/12/25 03:16:20;;;;;;;3.30;1.37;;;;;;;;;;4974298;28;20931;-72
2020/12/25 03:18:45;;;;;;;3.93;0.90;;;;;;;;;;4974859;28;20200;-72
2020/12/25 03:21:10;;;;;;;6.07;1.70;;;;;;;;;;4971786;28;20626;-74
2020/12/25 03:23:35;;;;;;;1.00;0.90;;;;;;;;;;4973314;28;20250;-73
2020/12/25 03:26:00;;;;;;;5.30;1.47;;;;;;;;;;4973158;28;20180;-72
2020/12/25 03:28:25;;;;;;;2.00;1.00;;;;;;;;;;4972809;28;20195;-73
2020/12/25 03:30:51;;;;;;;4.00;1.57;;;;;;;;;;4973395;28;20231;-72
2020/12/25 03:33:16;;;;;;;3.43;1.10;;;;;;;;;;4970213;28;20204;-72
2020/12/25 03:35:41;;;;;;;4.37;1.10;;;;;;;;;;4972636;28;20188;-72
2020/12/25 03:38:06;;;;;;;2.23;0.93;;;;;;;;;;4988369;28;20218;-72
2020/12/25 03:40:34;;;;;;;3.30;1.20;;;;;;;;;;4972984;28;20202;-72
2020/12/25 03:42:59;;;;;;;3.77;1.03;;;;;;;;;;4973407;28;20701;-72
2020/12/25 03:45:24;;;;;;;4.97;1.20;;;;;;;;;;4970136;28;20185;-71
2020/12/25 03:47:49;;;;;;;3.87;1.33;;;;;;;;;;4977683;28;20672;-72
2020/12/25 03:50:14;;;;;;;1.40;0.97;;;;;;;;;;4972094;28;20220;-73
2020/12/25 03:52:39;;;;;;;4.43;1.27;;;;;;;;;;4977057;28;20200;-72
2020/12/25 03:55:05;;;;;;;2.83;1.00;;;;;;;;;;4975236;28;20292;-72
2020/12/25 03:57:30;;;;;;;2.37;0.97;;;;;;;;;;4967222;28;20201;-72
2020/12/25 03:59:55;;;;;;;3.57;1.20;;;;;;;;;;4972196;28;20181;-72
2020/12/25 04:02:20;;;;;;;3.20;1.20;;;;;;;;;;4971469;28;20227;-72
2020/12/25 04:04:45;;;;;;;1.93;1.10;;;;;;;;;;4971040;28;20239;-72
2020/12/25 04:07:11;;;;;;;2.00;0.80;;;;;;;;;;4970454;28;20177;-72
2020/12/25 04:09:36;;;;;;;5.60;1.27;;;;;;;;;;4970184;28;20176;-72
2020/12/25 04:12:01;;;;;;;3.83;1.20;;;;;;;;;;4975402;28;20615;-73
2020/12/25 04:14:26;;;;;;;5.80;1.87;;;;;;;;;;4972599;28;20199;-72
2020/12/25 04:16:51;;;;;;;1.53;0.73;;;;;;;;;;4969575;28;20242;-72
2020/12/25 04:19:17;;;;;;;6.13;1.40;;;;;;;;;;4969747;28;20208;-72
2020/12/25 04:21:42;;;;;;;1.97;1.37;;;;;;;;;;4971966;28;20661;-72
2020/12/25 04:24:07;;;;;;;3.07;1.13;;;;;;;;;;4971140;28;20236;-72
2020/12/25 04:26:32;;;;;;;3.73;1.30;;;;;;;;;;4973013;28;20180;-72
2020/12/25 04:28:57;;;;;;;5.37;2.27;;;;;;;;;;4971439;28;20180;-72
2020/12/25 04:31:23;;;;;;;2.47;1.20;;;;;;;;;;4970010;28;20555;-72
2020/12/25 04:33:48;;;;;;;2.13;1.10;;;;;;;;;;4970585;28;20200;-73
2020/12/25 04:36:14;;;;;;;4.60;1.93;;;;;;;;;;4975915;28;20194;-73
2020/12/25 04:38:39;;;;;;;4.70;2.70;;;;;;;;;;4973114;28;20574;-72
2020/12/25 04:41:06;;;;;;;4.23;1.50;;;;;;;;;;4971440;28;20269;-72
2020/12/25 04:43:31;;;;;;;3.80;0.93;;;;;;;;;;4971964;28;20828;-72
2020/12/25 04:45:56;;;;;;;3.73;1.20;;;;;;;;;;4975979;28;20223;-72
2020/12/25 04:48:22;;;;;;;2.87;1.33;;;;;;;;;;4971674;28;20184;-72
2020/12/25 04:50:47;;;;;;;3.87;1.20;;;;;;;;;;4972210;28;20235;-72
2020/12/25 04:53:12;;;;;;;3.70;1.03;;;;;;;;;;4977118;28;20204;-72
2020/12/25 04:55:38;;;;;;;1.43;0.97;;;;;;;;;;4971981;28;20560;-72
2020/12/25 04:58:03;;;;;;;3.00;0.90;;;;;;;;;;4970190;28;20200;-72
2020/12/25 05:00:28;;;;;;;1.83;0.90;;;;;;;;;;4971726;28;20557;-72
2020/12/25 05:02:53;;;;;;;4.10;1.07;;;;;;;;;;4970468;28;20208;-72
2020/12/25 05:05:25;;;;;;;3.83;1.30;;;;;;;;;;4971752;28;20184;-72
2020/12/25 05:07:52;;;;;;;5.17;1.53;;;;;;;;;;4970996;28;20191;-72
2020/12/25 05:10:17;;;;;;;4.40;1.40;;;;;;;;;;4976451;28;20184;-72
2020/12/25 05:12:45;;;;;;;1.60;0.90;;;;;;;;;;4975379;28;20570;-72
2020/12/25 05:15:10;;;;;;;3.47;1.10;;;;;;;;;;4969498;28;21391;-72
2020/12/25 05:17:36;;;;;;;5.33;1.20;;;;;;;;;;4978156;28;20283;-72
2020/12/25 05:20:03;;;;;;;10.07;1.30;;;;;;;;;;4970392;28;20177;-72
2020/12/25 05:22:28;;;;;;;4.80;1.30;;;;;;;;;;4970241;28;20233;-72
2020/12/25 05:24:53;;;;;;;2.60;1.37;;;;;;;;;;4971045;28;20611;-72
2020/12/25 05:27:23;;;;;;;3.50;1.10;;;;;;;;;;4977834;28;20191;-72
2020/12/25 05:29:48;;;;;;;3.10;1.43;;;;;;;;;;4969410;28;20323;-72
2020/12/25 05:32:13;;;;;;;3.60;1.43;;;;;;;;;;4990320;28;20706;-72
2020/12/25 05:34:41;;;;;;;4.00;1.30;;;;;;;;;;4970388;28;20177;-72
2020/12/25 05:37:07;;;;;;;3.13;1.37;;;;;;;;;;4973001;28;20188;-72
2020/12/25 05:39:38;;;;;;;5.73;1.60;;;;;;;;;;4965852;28;20785;-72
2020/12/25 05:42:04;;;;;;;5.30;1.30;;;;;;;;;;4971146;28;20183;-72
2020/12/25 05:44:34;;;;;;;3.43;1.70;;;;;;;;;;4969342;28;20282;-72
2020/12/25 05:46:59;;;;;;;3.33;1.20;;;;;;;;;;4969767;28;20680;-72
2020/12/25 05:49:29;;;;;;;8.87;1.50;;;;;;;;;;4971322;28;20184;-72
2020/12/25 05:51:54;;;;;;;7.73;1.70;;;;;;;;;;4972456;28;20608;-72
2020/12/25 05:54:24;;;;;;;2.87;1.60;;;;;;;;;;4971268;28;20283;-72
2020/12/25 05:56:53;;;;;;;5.33;2.33;;;;;;;;;;4968482;28;20196;-72
2020/12/25 05:59:22;;;;;;;8.77;2.10;;;;;;;;;;4966656;28;20719;-72
2020/12/25 06:01:47;;;;;;;5.13;1.90;;;;;;;;;;4970929;28;20176;-72
2020/12/25 06:04:12;;;;;;;3.97;1.60;;;;;;;;;;4969152;28;20214;-72
2020/12/25 06:06:39;;;;;;;12.30;2.07;;;;;;;;;;4970134;28;20607;-72
2020/12/25 06:09:05;;;;;;;10.47;1.60;;;;;;;;;;4971778;28;20220;-72
2020/12/25 06:11:31;;;;;;;4.23;1.60;;;;;;;;;;4973822;28;20754;-72
2020/12/25 06:13:57;;;;;;;9.80;1.70;;;;;;;;;;4973291;28;20693;-72
2020/12/25 06:16:22;;;;;;;5.37;1.30;;;;;;;;;;4970902;28;20677;-72
2020/12/25 06:19:00;;;;;;;4.17;1.37;;;;;;;;;;4977565;28;20224;-72
2020/12/25 06:21:34;;;;;;;9.70;2.40;;;;;;;;;;4968390;28;20199;-73
2020/12/25 06:24:00;;;;;;;8.63;1.67;;;;;;;;;;4973068;28;20258;-72
2020/12/25 06:26:25;;;;;;;7.53;1.80;;;;;;;;;;4970988;28;20180;-72
2020/12/25 06:28:52;;;;;;;6.87;1.70;;;;;;;;;;4975483;28;20180;-73
2020/12/25 06:31:32;;;;;;;3.77;1.40;;;;;;;;;;4972463;28;20472;-72
2020/12/25 06:33:57;;;;;;;6.40;1.70;;;;;;;;;;4977968;28;20192;-72
2020/12/25 06:36:29;;;;;;;10.77;3.03;;;;;;;;;;4983496;28;20184;-73
2020/12/25 06:38:56;;;;;;;8.27;1.70;;;;;;;;;;4979360;28;20231;-72
2020/12/25 06:41:22;;;;;;;5.43;1.70;;;;;;;;;;4975679;28;20535;-72
2020/12/25 06:43:48;;;;;;;6.80;2.73;;;;;;;;;;4976530;28;20207;-72
2020/12/25 06:46:25;;;;;;;6.40;2.40;;;;;;;;;;4979103;28;20640;-74
2020/12/25 06:48:51;;;;;;;6.27;1.63;;;;;;;;;;4971729;28;20704;-72
2020/12/25 06:51:20;;;;;;;6.30;1.43;;;;;;;;;;4971992;28;20215;-73
2020/12/25 06:53:46;;;;;;;6.37;1.67;;;;;;;;;;4969930;28;20705;-71
2020/12/25 06:56:12;;;;;;;7.37;1.90;;;;;;;;;;4987492;28;20180;-72
2020/12/25 06:58:42;;;;;;;10.97;1.77;;;;;;;;;;4980297;28;20203;-72
2020/12/25 07:01:08;;;;;;;7.83;1.60;;;;;;;;;;4970966;28;20685;-73
2020/12/25 07:03:34;;;;;;;5.87;2.20;;;;;;;;;;4972004;28;20291;-72
2020/12/25 07:06:00;;;;;;;8.70;1.63;;;;;;;;;;4973831;28;20176;-74
2020/12/25 07:08:29;;;;;;;12.13;2.40;;;;;;;;;;4972510;28;20563;-73
2020/12/25 07:11:02;;;;;;;11.03;1.90;;;;;;;;;;4988689;28;20191;-73
2020/12/25 07:13:28;;;;;;;6.53;1.77;;;;;;;;;;4973050;28;20204;-72
2020/12/25 07:15:53;;;;;;;11.60;1.80;;;;;;;;;;4972956;28;20180;-73
2020/12/25 07:18:19;;;;;;;7.50;1.60;;;;;;;;;;4976074;28;20207;-72
2020/12/25 07:20:44;;;;;;;4.93;1.73;;;;;;;;;;4970938;28;20179;-72
2020/12/25 07:23:09;;;;;;;12.33;2.43;;;;;;;;;;4972982;28;20200;-72
2020/12/25 07:25:41;;;;;;;5.77;1.67;;;;;;;;;;4973107;28;20537;-72
2020/12/25 07:28:06;;;;;;;10.33;2.50;;;;;;;;;;4973339;28;20181;-72
2020/12/25 07:30:31;;;;;;;4.90;1.57;;;;;;;;;;4971917;28;20279;-72
2020/12/25 07:32:56;;;;;;;7.37;2.17;;;;;;;;;;4976564;28;20212;-73
2020/12/25 07:35:22;;;;;;;6.37;1.67;;;;;;;;;;4969658;28;20192;-72
2020/12/25 07:37:53;;;;;;;8.07;1.83;;;;;;;;;;4976254;28;20769;-72
2020/12/25 07:40:19;;;;;;;6.07;2.13;;;;;;;;;;4973108;28;20176;-73
2020/12/25 07:42:44;;;;;;;7.53;2.10;;;;;;;;;;4970891;28;20214;-72
2020/12/25 07:45:09;;;;;;;7.00;1.77;;;;;;;;;;4968220;28;20177;-72
2020/12/25 07:47:41;;;;;;;8.80;2.60;;;;;;;;;;4963816;28;20181;-72
2020/12/25 07:50:06;;;;;;;4.77;1.73;;;;;;;;;;4969202;28;20275;-72
2020/12/25 07:52:31;;;;;;;9.17;2.70;;;;;;;;;;4971928;28;20243;-72
2020/12/25 07:54:57;;;;;;;11.40;1.90;;;;;;;;;;4971674;28;20204;-72
2020/12/25 07:57:22;;;;;;;9.30;1.93;;;;;;;;;;4972832;28;20243;-72
2020/12/25 07:59:47;;;;;;;9.60;3.50;;;;;;;;;;4972300;28;20219;-72
2020/12/25 08:02:13;;;;;;;9.70;2.70;;;;;;;;;;4961512;28;20463;-73
2020/12/25 08:04:41;;;;;;;13.13;2.57;;;;;;;;;;4956329;28;20208;-72
2020/12/25 08:07:07;;;;;;;8.10;1.77;;;;;;;;;;4947075;28;20727;-73
2020/12/25 08:09:36;;;;;;;12.37;2.00;;;;;;;;;;4955627;28;20195;-72
2020/12/25 08:12:01;;;;;;;9.03;2.10;;;;;;;;;;4958248;28;20179;-72
2020/12/25 08:14:27;;;;;;;10.20;3.07;;;;;;;;;;4956041;28;20243;-72
2020/12/25 08:16:52;;;;;;;9.70;1.90;;;;;;;;;;4958534;28;20184;-72
2020/12/25 08:19:17;;;;;;;8.20;2.37;;;;;;;;;;4956691;28;20227;-72
2020/12/25 08:21:43;;;;;;;10.60;3.50;;;;;;;;;;4959483;28;20239;-72
2020/12/25 08:24:09;;;;;;;9.03;1.90;;;;;;;;;;4965826;28;20223;-72
2020/12/25 08:26:36;;;;;;;8.90;2.10;;;;;;;;;;4954220;28;20188;-72
2020/12/25 08:29:02;;;;;;;12.73;3.40;;;;;;;;;;4957712;28;20661;-72
2020/12/25 08:31:33;;;;;;;8.40;1.90;;;;;;;;;;4953224;28;20200;-72
2020/12/25 08:33:58;;;;;;;10.27;2.33;;;;;;;;;;4956630;28;20223;-72
2020/12/25 08:36:24;;;;;;;11.27;2.40;;;;;;;;;;4953239;28;20188;-72
2020/12/25 08:38:50;;;;;;;9.40;2.10;;;;;;;;;;4956682;28;20695;-72
2020/12/25 08:41:15;;;;;;;11.00;2.63;;;;;;;;;;4954219;28;20188;-72
2020/12/25 08:43:40;;;;;;;6.03;2.13;;;;;;;;;;4960052;28;21190;-72
2020/12/25 08:46:05;;;;;;;8.57;2.33;;;;;;;;;;4961207;28;20188;-72
2020/12/25 08:48:31;;;;;;;12.77;2.70;;;;;;;;;;4960957;28;20669;-72
2020/12/25 08:51:10;;;;;;;9.63;2.30;;;;;;;;;;4959327;28;20189;-72
2020/12/25 08:53:35;;;;;;;7.77;2.40;;;;;;;;;;4963801;28;20213;-73
2020/12/25 08:56:14;;;;;;;10.00;2.40;;;;;;;;;;4964246;28;20851;-73
2020/12/25 08:58:39;;;;;;;8.97;2.33;;;;;;;;;;4964938;28;20208;-72
2020/12/25 09:01:04;;;;;;;13.03;2.33;;;;;;;;;;4960936;28;20186;-72
2020/12/25 09:03:36;;;;;;;6.97;2.03;;;;;;;;;;4965732;28;20231;-73
2020/12/25 09:06:02;;;;;;;11.33;2.47;;;;;;;;;;4972216;28;20485;-73
2020/12/25 09:08:27;;;;;;;9.00;2.40;;;;;;;;;;4969117;28;20235;-73
2020/12/25 09:10:52;;;;;;;7.33;2.50;;;;;;;;;;4961756;28;20238;-72
2020/12/25 09:13:17;;;;;;;8.37;2.30;;;;;;;;;;4955177;28;20685;-74
2020/12/25 09:15:42;;;;;;;11.83;2.73;;;;;;;;;;4959298;28;20189;-72
2020/12/25 09:18:07;;;;;;;11.55;2.15;;;;;;;;;;4954356;28;20208;-72
2020/12/25 09:20:33;;;;;;;6.80;2.27;;;;;;;;;;4954867;28;20185;-73
2020/12/25 09:22:58;;;;;;;9.90;1.90;;;;;;;;;;4954988;28;21085;-73
2020/12/25 09:25:23;;;;;;;12.27;3.13;;;;;;;;;;4957227;28;20180;-72
2020/12/25 09:27:48;;;;;;;3.97;1.63;;;;;;;;;;4955623;28;20192;-73
2020/12/25 09:30:13;;;;;;;4.83;1.90;;;;;;;;;;4955036;28;20657;-71
2020/12/25 09:32:39;;;;;;;13.27;1.87;;;;;;;;;;4954868;28;20219;-71
2020/12/25 09:35:04;;;;;;;6.53;2.00;;;;;;;;;;4958270;28;20195;-71
2020/12/25 09:37:29;;;;;;;7.30;1.83;;;;;;;;;;4958301;28;20216;-71
2020/12/25 09:39:54;;;;;;;7.33;2.07;;;;;;;;;;4957884;28;20254;-71
2020/12/25 09:42:19;;;;;;;9.23;2.70;;;;;;;;;;4957583;28;20491;-71
2020/12/25 09:44:44;;;;;;;6.00;2.57;;;;;;;;;;4961146;28;20737;-71
2020/12/25 09:47:10;;;;;;;6.80;2.23;;;;;;;;;;4963482;28;20733;-71
2020/12/25 09:49:35;;;;;;;7.40;1.70;;;;;;;;;;4962388;28;20176;-71
2020/12/25 09:52:03;;;;;;;7.47;1.80;;;;;;;;;;4967134;28;20475;-71
2020/12/25 09:54:29;;;;;;;5.00;1.50;;;;;;;;;;4968419;28;20729;-73
2020/12/25 09:56:54;;;;;;;4.80;1.60;;;;;;;;;;4964628;28;20184;-74
2020/12/25 09:59:22;;;;;;;4.73;1.37;;;;;;;;;;4964405;28;20207;-73
2020/12/25 10:01:47;;;;;;;6.40;1.70;;;;;;;;;;4964154;28;20516;-73
2020/12/25 10:04:12;;;;;;;9.43;2.53;;;;;;;;;;4961437;28;20308;-73
2020/12/25 10:06:37;;;;;;;4.30;1.40;;;;;;;;;;4965167;28;20188;-73
2020/12/25 10:09:03;;;;;;;3.73;1.13;;;;;;;;;;4962905;28;20670;-73
2020/12/25 10:11:28;;;;;;;4.27;1.47;;;;;;;;;;4961980;28;20192;-73
2020/12/25 10:13:53;;;;;;;6.30;1.40;;;;;;;;;;4960698;28;20556;-73
2020/12/25 10:16:18;;;;;;;3.87;1.90;;;;;;;;;;4964525;28;20678;-73
2020/12/25 10:18:44;;;;;;;9.40;1.90;;;;;;;;;;4963401;28;20212;-73
2020/12/25 10:21:09;;;;;;;14.80;4.03;;;;;;;;;;4960928;28;20196;-73
2020/12/25 10:23:35;;;;;;;6.50;1.70;;;;;;;;;;4961968;28;20215;-73
2020/12/25 10:26:00;;;;;;;5.10;1.50;;;;;;;;;;4959748;28;20179;-73
2020/12/25 10:28:25;;;;;;;7.57;1.90;;;;;;;;;;4961975;28;20188;-73
2020/12/25 10:30:50;;;;;;;4.80;1.50;;;;;;;;;;4959784;28;20199;-72
2020/12/25 10:33:15;;;;;;;4.93;1.50;;;;;;;;;;4958970;28;20815;-71
2020/12/25 10:35:40;;;;;;;7.50;1.80;;;;;;;;;;4960485;28;20183;-71
2020/12/25 10:38:06;;;;;;;8.17;1.67;;;;;;;;;;4963948;28;20674;-74
2020/12/25 10:40:31;;;;;;;9.67;3.23;;;;;;;;;;4964122;28;20192;-74
2020/12/25 10:42:56;;;;;;;7.63;1.53;;;;;;;;;;4963550;28;20306;-73
2020/12/25 10:45:21;;;;;;;9.37;1.60;;;;;;;;;;4968087;28;20204;-72
2020/12/25 10:47:47;;;;;;;9.30;1.53;;;;;;;;;;4975240;28;20203;-72
2020/12/25 10:50:12;;;;;;;8.50;2.63;;;;;;;;;;4976514;28;20658;-72
2020/12/25 10:52:37;;;;;;;4.77;1.57;;;;;;;;;;4978676;28;20712;-72
2020/12/25 10:55:02;;;;;;;8.00;1.67;;;;;;;;;;4975928;28;20189;-72
2020/12/25 10:57:28;;;;;;;5.40;1.57;;;;;;;;;;4974405;28;20188;-72
2020/12/25 10:59:53;;;;;;;5.67;1.47;;;;;;;;;;4973397;28;20704;-72
2020/12/25 11:02:18;;;;;;;8.40;1.73;;;;;;;;;;4977221;28;20192;-72
2020/12/25 11:04:43;;;;;;;4.53;1.35;;;;;;;;;;4970533;28;20287;-72
2020/12/25 11:07:08;;;;;;;3.07;1.50;;;;;;;;;;4974179;28;20642;-72
2020/12/25 11:09:34;;;;;;;5.67;1.80;;;;;;;;;;4970366;28;20184;-72
2020/12/25 11:11:59;;;;;;;5.70;1.63;;;;;;;;;;4977403;28;20569;-72
2020/12/25 11:14:24;;;;;;;4.90;1.40;;;;;;;;;;4971377;28;20200;-72
2020/12/25 11:16:49;;;;;;;3.97;1.55;;;;;;;;;;4978889;28;20195;-72
2020/12/25 11:19:16;;;;;;;4.43;1.27;;;;;;;;;;4974389;28;20226;-72
2020/12/25 11:21:41;;;;;;;5.57;1.23;;;;;;;;;;4972549;28;20563;-72
2020/12/25 11:24:06;;;;;;;4.35;1.55;;;;;;;;;;4973253;28;20283;-71
2020/12/25 11:26:33;;;;;;;8.40;1.53;;;;;;;;;;4976638;28;20183;-72
2020/12/25 11:28:59;;;;;;;4.47;1.10;;;;;;;;;;4977842;28;20227;-72
2020/12/25 11:31:25;;;;;;;6.30;1.93;;;;;;;;;;4974571;28;20259;-72
2020/12/25 11:33:51;;;;;;;6.93;1.63;;;;;;;;;;4973605;28;20702;-74
2020/12/25 11:36:17;;;;;;;6.73;1.40;;;;;;;;;;4975233;28;20196;-72
2020/12/25 11:38:43;;;;;;;2.77;1.23;;;;;;;;;;4977202;28;20614;-73
2020/12/25 11:41:09;;;;;;;7.30;1.27;;;;;;;;;;4976412;28;20183;-73
2020/12/25 11:43:34;;;;;;;5.30;1.63;;;;;;;;;;4974347;28;20196;-72
2020/12/25 11:45:59;;;;;;;4.13;1.27;;;;;;;;;;4966118;28;20180;-72
2020/12/25 11:48:25;;;;;;;5.87;1.93;;;;;;;;;;4972325;28;20177;-72
2020/12/25 11:50:50;;;;;;;4.37;1.53;;;;;;;;;;4977924;28;20183;-72
2020/12/25 11:53:15;;;;;;;5.95;1.70;;;;;;;;;;4974534;28;20208;-72
2020/12/25 11:55:40;;;;;;;8.93;2.27;;;;;;;;;;4973975;28;20180;-72
2020/12/25 11:58:05;;;;;;;5.43;1.30;;;;;;;;;;4973752;28;20196;-72
2020/12/25 12:00:31;;;;;;;5.53;1.85;;;;;;;;;;4974095;28;20610;-72
2020/12/25 12:02:56;;;;;;;5.03;1.50;;;;;;;;;;4975411;28;20212;-72
2020/12/25 12:05:21;;;;;;;8.53;1.40;;;;;;;;;;4973923;28;20322;-73
2020/12/25 12:07:46;;;;;;;6.03;1.70;;;;;;;;;;4962580;28;20186;-72
2020/12/25 12:10:11;;;;;;;4.33;1.50;;;;;;;;;;4971800;28;20700;-72
2020/12/25 12:12:36;;;;;;;6.18;1.48;;;;;;;;;;4970663;28;20219;-72
2020/12/25 12:15:02;;;;;;;5.70;2.20;;;;;;;;;;4969910;28;20187;-72
2020/12/25 12:17:27;;;;;;;6.37;1.60;;;;;;;;;;4972746;28;20582;-72
2020/12/25 12:19:52;;;;;;;10.40;1.67;;;;;;;;;;4973483;28;20184;-72
2020/12/25 12:22:17;;;;;;;4.83;1.50;;;;;;;;;;4991279;28;20574;-72
2020/12/25 12:24:43;;;;;;;7.50;1.90;;;;;;;;;;4975534;28;20176;-72
2020/12/25 12:27:08;;;;;;;7.90;1.90;;;;;;;;;;4973326;28;20182;-73
2020/12/25 12:29:33;;;;;;;8.13;1.30;;;;;;;;;;4972839;28;20717;-73
2020/12/25 12:31:58;;;;;;;5.90;1.30;;;;;;;;;;4974621;28;20214;-72
2020/12/25 12:34:23;;;;;;;5.13;1.50;;;;;;;;;;4975061;28;20712;-73
2020/12/25 12:36:48;;;;;;;5.80;1.30;;;;;;;;;;4973386;28;20210;-72
2020/12/25 12:39:14;;;;;;;8.27;1.73;;;;;;;;;;4974681;28;20504;-72
2020/12/25 12:41:39;;;;;;;4.50;1.47;;;;;;;;;;4981002;28;20169;-72
2020/12/25 12:44:04;;;;;;;7.80;1.47;;;;;;;;;;4970074;28;20287;-74
2020/12/25 12:46:29;;;;;;;3.57;1.10;;;;;;;;;;4972588;28;20697;-74
2020/12/25 12:48:54;;;;;;;6.47;1.90;;;;;;;;;;4956302;28;20188;-73
2020/12/25 12:51:19;;;;;;;7.57;1.80;;;;;;;;;;4956207;28;20223;-73
2020/12/25 12:53:45;;;;;;;6.95;1.85;;;;;;;;;;4964500;28;20200;-73
2020/12/25 12:56:11;;;;;;;5.30;1.20;;;;;;;;;;4950724;28;20196;-72
2020/12/25 12:58:36;;;;;;;5.10;1.10;;;;;;;;;;4953173;28;20705;-73
2020/12/25 13:01:02;;;;;;;6.53;1.20;;;;;;;;;;4953515;28;20172;-73
2020/12/25 13:03:27;;;;;;;3.77;1.40;;;;;;;;;;4966856;28;20272;-73
2020/12/25 13:05:52;;;;;;;4.33;1.53;;;;;;;;;;4955480;28;20195;-73
2020/12/25 13:08:17;;;;;;;6.67;1.50;;;;;;;;;;4955097;28;20196;-72
2020/12/25 13:10:42;;;;;;;7.67;1.40;;;;;;;;;;4952120;28;20318;-73
2020/12/25 13:13:07;;;;;;;4.77;1.30;;;;;;;;;;4950227;28;20211;-73
2020/12/25 13:15:33;;;;;;;3.90;1.00;;;;;;;;;;4951728;28;20712;-74
2020/12/25 13:17:58;;;;;;;9.57;1.80;;;;;;;;;;4953497;28;20211;-74
2020/12/25 13:20:23;;;;;;;4.87;1.70;;;;;;;;;;4952826;28;20557;-73
2020/12/25 13:22:48;;;;;;;6.10;2.53;;;;;;;;;;4956042;28;20208;-73
2020/12/25 13:25:13;;;;;;;7.32;2.05;;;;;;;;;;4955036;28;20225;-73
2020/12/25 13:27:39;;;;;;;3.70;1.53;;;;;;;;;;4954305;28;20216;-74
2020/12/25 13:30:04;;;;;;;5.63;1.97;;;;;;;;;;4952213;28;20662;-74
2020/12/25 13:32:29;;;;;;;3.93;1.80;;;;;;;;;;4954613;28;20184;-73
2020/12/25 13:34:54;;;;;;;4.60;1.40;;;;;;;;;;4952967;28;20181;-75
2020/12/25 13:37:19;;;;;;;3.30;1.60;;;;;;;;;;4955399;28;20206;-74
2020/12/25 13:39:44;;;;;;;3.87;1.70;;;;;;;;;;4951930;28;20216;-72
2020/12/25 13:42:10;;;;;;;2.57;1.10;;;;;;;;;;4958027;28;20623;-73
2020/12/25 13:44:35;;;;;;;3.20;1.60;;;;;;;;;;4954862;28;20210;-73
2020/12/25 13:47:00;;;;;;;3.63;1.50;;;;;;;;;;4953042;28;20184;-73
2020/12/25 13:49:25;;;;;;;3.57;1.37;;;;;;;;;;4953086;28;20184;-73
2020/12/25 13:51:53;;;;;;;5.53;1.20;;;;;;;;;;4954795;28;20192;-73
2020/12/25 13:54:18;;;;;;;3.47;1.40;;;;;;;;;;4951183;28;20589;-73
2020/12/25 13:56:44;;;;;;;1.60;0.87;;;;;;;;;;4950622;28;20194;-73
2020/12/25 13:59:09;;;;;;;1.43;1.00;;;;;;;;;;4955823;28;20687;-74
2020/12/25 14:01:34;;;;;;;4.53;1.20;;;;;;;;;;4956185;28;20172;-74
2020/12/25 14:04:00;;;;;;;1.87;1.20;;;;;;;;;;4962667;28;20219;-73
2020/12/25 14:06:32;;;;;;;2.93;1.13;;;;;;;;;;4959970;28;20188;-72
2020/12/25 14:08:57;;;;;;;7.73;1.70;;;;;;;;;;4959096;28;20187;-73
2020/12/25 14:11:22;;;;;;;3.13;1.10;;;;;;;;;;4960148;28;20184;-73
2020/12/25 14:13:48;;;;;;;2.83;1.27;;;;;;;;;;4962855;28;20208;-73
2020/12/25 14:16:16;;;;;;;8.23;2.90;;;;;;;;;;4966972;28;20740;-73
2020/12/25 14:18:42;;;;;;;4.60;1.30;;;;;;;;;;4956537;28;20504;-73
2020/12/25 14:21:08;;;;;;;2.47;1.33;;;;;;;;;;4952842;28;20176;-73
2020/12/25 14:23:33;;;;;;;7.20;1.87;;;;;;;;;;4954286;28;20507;-73
2020/12/25 14:25:58;;;;;;;4.37;3.00;;;;;;;;;;4952535;28;20192;-73
2020/12/25 14:28:23;;;;;;;7.10;1.93;;;;;;;;;;4948650;28;20895;-73
2020/12/25 14:30:48;;;;;;;3.83;1.83;;;;;;;;;;4952061;28;20190;-73
2020/12/25 14:33:15;;;;;;;3.47;1.47;;;;;;;;;;4958753;28;20582;-73
2020/12/25 14:35:40;;;;;;;3.83;1.23;;;;;;;;;;4956056;28;20191;-73